Time;durP1;ratioP1;P1;durP2;ratioP2;P2;SDS_P1;SDS_P2;PMS_P1;PMS_P2;Temp;Humidity;BMP_temperature;BMP_pressure;BME280_temperature;BME280_humidity;BME280_pressure;Samples;Min_cycle;Max_cycle;Signal;HPM_P1;HPM_P2
2023/04/10 00:02:09;;;;;;;71.07;28.35;;;;;;;8.39;100.00;100139.28;5036519;28;20053;-90
2023/04/10 00:04:36;;;;;;;73.82;32.72;;;;;;;8.25;100.00;100126.78;5038148;28;20052;-90
2023/04/10 00:07:03;;;;;;;84.25;34.75;;;;;;;8.29;100.00;100126.63;5054971;28;20094;-89
2023/04/10 00:09:31;;;;;;;64.07;31.10;;;;;;;8.33;100.00;100127.34;5038220;28;20402;-90
2023/04/10 00:11:58;;;;;;;70.43;36.40;;;;;;;8.24;100.00;100141.59;5033679;28;20056;-89
2023/04/10 00:14:25;;;;;;;71.00;32.45;;;;;;;8.31;100.00;100116.13;5054278;28;20045;-89
2023/04/10 00:16:52;;;;;;;74.40;35.25;;;;;;;8.28;100.00;100122.28;5054313;28;20135;-89
2023/04/10 00:19:19;;;;;;;70.75;33.80;;;;;;;7.87;100.00;100050.84;5037614;28;20045;-89
2023/04/10 00:21:45;;;;;;;76.22;35.40;;;;;;;7.83;100.00;100037.09;5035224;28;20161;-89
2023/04/10 00:24:12;;;;;;;83.97;35.88;;;;;;;8.17;100.00;100080.97;5054335;28;20052;-88
2023/04/10 00:26:39;;;;;;;70.45;33.17;;;;;;;8.47;100.00;100108.59;5037350;28;20057;-88
2023/04/10 00:29:07;;;;;;;79.45;35.88;;;;;;;8.27;100.00;100083.22;5038088;28;20103;-89
2023/04/10 00:31:34;;;;;;;91.35;39.28;;;;;;;8.26;100.00;100073.72;5049861;28;20053;-89
2023/04/10 00:34:00;;;;;;;67.68;31.95;;;;;;;8.35;100.00;100068.13;5037283;28;20367;-89
2023/04/10 00:36:27;;;;;;;80.93;35.22;;;;;;;8.26;100.00;100051.09;5036987;28;20071;-88
2023/04/10 00:38:54;;;;;;;62.40;30.52;;;;;;;8.40;100.00;100076.63;5037438;28;20037;-88
2023/04/10 00:41:22;;;;;;;74.28;33.75;;;;;;;8.56;100.00;100076.91;5046946;28;20063;-87
2023/04/10 00:43:49;;;;;;;70.00;37.08;;;;;;;8.24;100.00;100041.63;5055076;28;20101;-88
2023/04/10 00:46:17;;;;;;;78.78;36.03;;;;;;;8.44;100.00;100059.13;5037949;28;20049;-87
2023/04/10 00:48:44;;;;;;;69.60;35.97;;;;;;;8.26;100.00;100030.22;5036966;28;20048;-87
2023/04/10 00:51:11;;;;;;;93.03;38.13;;;;;;;8.62;100.00;100061.00;5036266;28;20052;-87
2023/04/10 00:53:37;;;;;;;78.15;38.15;;;;;;;8.58;100.00;100075.09;5054862;28;20478;-87
2023/04/10 00:56:06;;;;;;;77.30;34.75;;;;;;;8.43;100.00;100066.13;5054017;28;20106;-87
2023/04/10 00:58:33;;;;;;;84.00;39.53;;;;;;;8.15;100.00;100030.66;5053325;28;20418;-87
2023/04/10 01:00:59;;;;;;;89.10;40.25;;;;;;;8.26;100.00;100050.25;5035569;28;20056;-87
2023/04/10 01:03:26;;;;;;;83.00;38.13;;;;;;;8.36;100.00;100060.25;5054544;28;20052;-88
2023/04/10 01:06:00;;;;;;;74.07;35.35;;;;;;;8.56;100.00;100074.31;5037060;28;20045;-87
2023/04/10 01:08:54;;;;;;;82.72;39.60;;;;;;;8.51;100.00;100050.16;5036595;28;20127;-87
2023/04/10 01:11:24;;;;;;;82.43;36.00;;;;;;;8.53;100.00;100062.25;5023747;28;20056;-87
2023/04/10 01:14:28;;;;;;;104.15;43.75;;;;;;;8.53;100.00;100066.59;5054640;28;20045;-88
2023/04/10 01:17:11;;;;;;;101.90;41.13;;;;;;;8.49;100.00;100047.59;5053900;28;20407;-88
2023/04/10 01:19:50;;;;;;;;;;;;;;;8.59;100.00;100049.84;5053707;28;20522;-88
2023/04/10 01:22:23;;;;;;;106.28;42.53;;;;;;;8.42;100.00;100055.72;5035425;28;19924;-87
2023/04/10 01:24:56;;;;;;;87.90;42.67;;;;;;;8.41;100.00;100047.03;5053203;28;20486;-88
2023/04/10 01:28:00;;;;;;;97.47;45.53;;;;;;;8.20;100.00;100055.69;5036916;28;20483;-87
2023/04/10 01:30:27;;;;;;;;;;;;;;;8.14;100.00;100036.78;5053780;28;20052;-88
2023/04/10 01:32:58;;;;;;;101.50;44.33;;;;;;;8.26;100.00;100045.03;5052655;28;19921;-87
2023/04/10 01:35:28;;;;;;;111.03;48.72;;;;;;;8.08;100.00;100025.75;5036542;28;20045;-88
2023/04/10 01:37:58;;;;;;;96.60;46.72;;;;;;;8.13;100.00;100019.44;5053820;28;20443;-87
2023/04/10 01:40:26;;;;;;;109.97;45.50;;;;;;;8.17;100.00;100025.38;5035981;28;20642;-87
2023/04/10 01:42:55;;;;;;;99.68;46.15;;;;;;;8.25;100.00;99993.75;5053022;28;20107;-87
2023/04/10 01:45:27;;;;;;;108.53;46.17;;;;;;;8.35;100.00;99997.72;5035316;28;20478;-88
2023/04/10 01:47:55;;;;;;;107.80;46.25;;;;;;;8.03;100.00;100005.03;5053245;28;20102;-88
2023/04/10 01:50:23;;;;;;;104.93;44.42;;;;;;;8.17;100.00;100001.91;5035883;28;20049;-88
2023/04/10 01:52:53;;;;;;;100.03;43.80;;;;;;;8.19;100.00;99981.81;5053239;28;20406;-88
2023/04/10 01:55:20;;;;;;;114.97;47.63;;;;;;;8.24;100.00;99974.66;5049006;28;20182;-88
2023/04/10 01:57:48;;;;;;;110.03;45.60;;;;;;;8.11;100.00;99950.84;5052284;28;20395;-88
2023/04/10 02:00:15;;;;;;;103.10;44.25;;;;;;;8.25;100.00;99962.47;5035515;28;20099;-87
2023/04/10 02:02:43;;;;;;;103.60;44.40;;;;;;;8.24;100.00;99956.41;5052507;28;20102;-88
2023/04/10 02:05:10;;;;;;;110.13;47.05;;;;;;;8.22;100.00;99965.22;5052943;28;20045;-88
2023/04/10 02:07:59;;;;;;;101.40;44.75;;;;;;;8.23;100.00;99966.91;5053169;28;20052;-87
2023/04/10 02:10:35;;;;;;;128.13;48.25;;;;;;;8.14;100.00;99955.06;5052891;28;20479;-88
2023/04/10 02:13:08;;;;;;;108.97;46.38;;;;;;;7.96;100.00;99933.19;5035335;28;20052;-88
2023/04/10 02:15:35;;;;;;;106.18;45.15;;;;;;;8.18;100.00;99939.25;5052731;28;20064;-88
2023/04/10 02:18:03;;;;;;;99.28;42.60;;;;;;;8.21;100.00;99940.03;5051640;28;20049;-88
2023/04/10 02:20:31;;;;;;;91.20;41.50;;;;;;;8.29;100.00;99912.75;5052575;28;20049;-88
2023/04/10 02:23:02;;;;;;;116.10;46.88;;;;;;;7.96;100.00;99904.53;5034800;28;20402;-89
2023/04/10 02:25:33;;;;;;;111.38;47.33;;;;;;;8.08;100.00;99913.63;5052673;28;20052;-89
2023/04/10 02:28:07;;;;;;;99.25;41.85;;;;;;;8.25;100.00;99895.53;5035345;28;20107;-89
2023/04/10 02:30:34;;;;;;;106.38;46.05;;;;;;;8.17;100.00;99895.00;5034421;28;20045;-89
2023/04/10 02:33:01;;;;;;;125.28;47.85;;;;;;;8.04;100.00;99860.75;5052292;28;20076;-88
2023/04/10 02:35:28;;;;;;;99.18;41.45;;;;;;;8.30;100.00;99883.13;5052928;28;20056;-88
2023/04/10 02:37:55;;;;;;;109.95;42.63;;;;;;;8.25;100.00;99881.63;5032316;28;20103;-88
2023/04/10 02:40:22;;;;;;;109.70;45.08;;;;;;;8.13;100.00;99873.41;5051524;28;20048;-87
2023/04/10 02:42:49;;;;;;;107.57;43.38;;;;;;;8.23;100.00;99860.81;5052534;28;20052;-88
2023/04/10 02:45:16;;;;;;;104.50;43.28;;;;;;;8.25;100.00;99858.16;5051742;28;20068;-88
2023/04/10 02:47:43;;;;;;;115.13;42.45;;;;;;;8.18;100.00;99850.59;5052085;28;20053;-87
2023/04/10 02:50:10;;;;;;;97.20;41.75;;;;;;;7.95;100.00;99817.66;5044144;28;20045;-88
2023/04/10 02:52:37;;;;;;;100.40;42.67;;;;;;;7.75;100.00;99779.38;5051238;28;20056;-88
2023/04/10 02:55:05;;;;;;;92.05;40.83;;;;;;;8.06;100.00;99819.00;5034897;28;20071;-89
2023/04/10 02:57:31;;;;;;;93.80;44.00;;;;;;;8.20;100.00;99829.69;5052350;28;20393;-88
2023/04/10 02:59:58;;;;;;;91.45;37.22;;;;;;;8.23;100.00;99829.53;5052216;28;20045;-88
2023/04/10 03:02:25;;;;;;;81.70;35.90;;;;;;;8.35;100.00;99815.13;5049943;28;20490;-88
2023/04/10 03:04:52;;;;;;;96.20;38.20;;;;;;;8.43;100.00;99812.22;5034851;28;20130;-86
2023/04/10 03:07:19;;;;;;;81.88;36.50;;;;;;;8.14;100.00;99794.28;5052496;28;20055;-87
2023/04/10 03:09:46;;;;;;;86.63;36.65;;;;;;;8.11;100.00;99791.81;5052530;28;20045;-86
2023/04/10 03:12:13;;;;;;;86.75;37.50;;;;;;;8.18;100.00;99805.44;5033772;28;20120;-87
2023/04/10 03:14:40;;;;;;;74.93;34.40;;;;;;;8.33;100.00;99796.09;5051929;28;20198;-86
2023/04/10 03:17:07;;;;;;;85.75;36.90;;;;;;;8.23;100.00;99792.19;5051010;28;20052;-86
2023/04/10 03:19:33;;;;;;;90.47;39.80;;;;;;;7.99;100.00;99741.03;5051959;28;20049;-85
2023/04/10 03:22:01;;;;;;;79.97;36.70;;;;;;;8.07;100.00;99745.91;5033514;28;20102;-86
2023/04/10 03:24:27;;;;;;;92.32;39.67;;;;;;;8.29;100.00;99778.91;5052350;28;20051;-87
2023/04/10 03:26:56;;;;;;;80.72;36.63;;;;;;;8.42;100.00;99777.47;5034387;28;20449;-87
2023/04/10 03:29:22;;;;;;;102.53;41.58;;;;;;;8.33;100.00;99764.78;5033380;28;20498;-87
2023/04/10 03:31:49;;;;;;;82.60;34.97;;;;;;;8.41;100.00;99757.50;5050338;28;20052;-87
2023/04/10 03:34:17;;;;;;;96.25;39.67;;;;;;;8.21;100.00;99762.72;5035477;28;20071;-87
2023/04/10 03:36:44;;;;;;;95.22;38.63;;;;;;;8.17;100.00;99733.31;5038205;28;20045;-87
2023/04/10 03:39:10;;;;;;;75.72;34.75;;;;;;;8.27;100.00;99733.75;5037716;28;20052;-87
2023/04/10 03:41:37;;;;;;;93.22;37.58;;;;;;;8.12;100.00;99723.06;5037339;28;20128;-86
2023/04/10 03:44:04;;;;;;;96.22;41.33;;;;;;;8.03;100.00;99723.50;5038343;28;20128;-86
2023/04/10 03:46:30;;;;;;;97.15;42.78;;;;;;;7.91;100.00;99696.19;5038280;28;20060;-85
2023/04/10 03:48:57;;;;;;;100.28;41.83;;;;;;;7.83;100.00;99664.41;5055989;28;20123;-86
2023/04/10 03:51:25;;;;;;;95.75;40.47;;;;;;;7.94;100.00;99676.97;5036931;28;20498;-86
2023/04/10 03:53:52;;;;;;;99.85;41.63;;;;;;;8.25;100.00;99702.56;5056267;28;20056;-86
2023/04/10 03:56:19;;;;;;;105.60;41.15;;;;;;;8.09;100.00;99685.88;5037908;28;20132;-86
2023/04/10 03:58:46;;;;;;;97.18;41.00;;;;;;;7.96;100.00;99670.75;5037265;28;20049;-86
2023/04/10 04:01:13;;;;;;;88.47;37.08;;;;;;;8.10;100.00;99666.72;5034017;28;20041;-86
2023/04/10 04:03:39;;;;;;;81.13;38.42;;;;;;;8.14;100.00;99679.56;5031234;28;20053;-85
2023/04/10 04:06:06;;;;;;;81.22;38.45;;;;;;;8.08;100.00;99652.91;5053138;28;20536;-86
2023/04/10 04:08:35;;;;;;;108.45;43.08;;;;;;;8.18;100.00;99662.84;5056101;28;20402;-86
2023/04/10 04:11:01;;;;;;;100.05;40.92;;;;;;;8.22;100.00;99660.97;5036755;28;20127;-87
2023/04/10 04:13:28;;;;;;;85.90;37.92;;;;;;;8.28;100.00;99646.78;5055250;28;20056;-86
2023/04/10 04:15:55;;;;;;;86.55;38.92;;;;;;;7.96;100.00;99616.03;5036980;28;20045;-86
2023/04/10 04:18:22;;;;;;;94.68;41.17;;;;;;;7.94;100.00;99599.63;5041602;28;20505;-86
2023/04/10 04:20:48;;;;;;;88.32;42.47;;;;;;;7.86;100.00;99578.28;5036273;28;20040;-86
2023/04/10 04:23:16;;;;;;;96.97;43.08;;;;;;;7.90;100.00;99589.41;5037238;28;20053;-87
2023/04/10 04:25:43;;;;;;;85.97;42.40;;;;;;;8.04;100.00;99620.91;5053828;28;20073;-87
2023/04/10 04:28:12;;;;;;;86.90;42.85;;;;;;;8.12;100.00;99623.16;5054398;28;20052;-87
2023/04/10 04:30:39;;;;;;;93.00;45.33;;;;;;;8.21;100.00;99614.09;5054264;28;20045;-86
2023/04/10 04:33:05;;;;;;;105.60;41.70;;;;;;;8.24;100.00;99593.09;5054616;28;20049;-86
2023/04/10 04:35:32;;;;;;;83.07;38.60;;;;;;;8.31;100.00;99586.66;5037382;28;20056;-86
2023/04/10 04:37:59;;;;;;;85.80;40.33;;;;;;;8.24;100.00;99577.44;5042949;28;20094;-86
2023/04/10 04:40:26;;;;;;;90.13;38.53;;;;;;;8.10;100.00;99573.69;5036365;28;20104;-87
2023/04/10 04:42:53;;;;;;;82.75;39.72;;;;;;;8.20;100.00;99571.53;5035953;28;20052;-88
2023/04/10 04:45:20;;;;;;;94.68;41.83;;;;;;;7.75;100.00;99510.16;5036527;28;20029;-88
2023/04/10 04:47:47;;;;;;;91.93;42.03;;;;;;;8.24;100.00;99585.28;5053058;28;20049;-87
2023/04/10 04:50:14;;;;;;;88.22;37.58;;;;;;;8.18;100.00;99558.56;5036236;28;20617;-87
2023/04/10 04:52:43;;;;;;;85.85;38.03;;;;;;;8.21;100.00;99554.09;5035881;28;20399;-87
2023/04/10 04:55:09;;;;;;;84.63;37.33;;;;;;;8.24;100.00;99551.38;5037037;28;20048;-87
2023/04/10 04:57:36;;;;;;;77.18;33.92;;;;;;;8.35;100.00;99562.97;5036689;28;20056;-88
2023/04/10 05:00:03;;;;;;;78.32;38.45;;;;;;;8.20;100.00;99542.84;5054592;28;20056;-87
2023/04/10 05:02:30;;;;;;;79.45;38.53;;;;;;;8.16;100.00;99517.81;5032433;28;20049;-88
2023/04/10 05:04:57;;;;;;;91.25;40.38;;;;;;;8.30;100.00;99554.50;5033779;28;20653;-88
2023/04/10 05:07:24;;;;;;;90.95;39.15;;;;;;;8.01;100.00;99524.59;5032971;28;20070;-88
2023/04/10 05:09:51;;;;;;;83.60;38.83;;;;;;;8.18;100.00;99511.63;5053848;28;20048;-88
2023/04/10 05:12:17;;;;;;;85.50;36.80;;;;;;;8.29;100.00;99533.75;5035937;28;20106;-89
2023/04/10 05:14:45;;;;;;;83.85;37.40;;;;;;;8.28;100.00;99517.22;5037741;28;20045;-88
2023/04/10 05:17:14;;;;;;;90.75;39.80;;;;;;;8.16;100.00;99503.03;5037419;28;20056;-89
2023/04/10 05:19:41;;;;;;;77.93;34.08;;;;;;;8.24;100.00;99504.44;5037710;28;20446;-88
2023/04/10 05:22:08;;;;;;;90.40;40.03;;;;;;;8.25;100.00;99504.38;5035695;28;20096;-88
2023/04/10 05:24:34;;;;;;;90.35;40.53;;;;;;;8.25;100.00;99516.53;5027189;28;20111;-88
2023/04/10 05:27:01;;;;;;;84.22;37.60;;;;;;;7.89;100.00;99439.16;5033826;28;20053;-87
2023/04/10 05:29:28;;;;;;;95.45;40.53;;;;;;;8.21;100.00;99499.34;5035661;28;20063;-86
2023/04/10 05:31:55;;;;;;;83.75;36.72;;;;;;;8.24;100.00;99468.75;5051771;28;20103;-86
2023/04/10 05:34:22;;;;;;;81.65;35.55;;;;;;;8.27;100.00;99473.84;5037342;28;20402;-87
2023/04/10 05:36:49;;;;;;;81.05;36.80;;;;;;;8.24;100.00;99475.75;5037210;28;20052;-87
2023/04/10 05:39:16;;;;;;;94.20;41.67;;;;;;;8.16;100.00;99483.91;5035391;28;20081;-86
2023/04/10 05:41:42;;;;;;;76.70;36.05;;;;;;;8.33;100.00;99485.72;5051335;28;20052;-86
2023/04/10 05:44:09;;;;;;;81.03;36.22;;;;;;;8.14;100.00;99428.41;5035143;28;20049;-87
2023/04/10 05:46:36;;;;;;;89.60;37.50;;;;;;;8.01;100.00;99414.28;5052568;28;20056;-87
2023/04/10 05:49:03;;;;;;;76.65;37.17;;;;;;;8.32;100.00;99456.22;5052983;28;20174;-88
2023/04/10 05:51:30;;;;;;;91.60;39.20;;;;;;;8.27;100.00;99452.97;5034338;28;20068;-87
2023/04/10 05:53:57;;;;;;;60.60;29.35;;;;;;;8.49;100.00;99444.13;5053566;28;20052;-88
2023/04/10 05:56:24;;;;;;;67.13;32.47;;;;;;;8.20;100.00;99437.69;5035487;28;20036;-88
2023/04/10 05:58:51;;;;;;;79.13;34.40;;;;;;;8.24;100.00;99439.25;5034957;28;20056;-88
2023/04/10 06:01:18;;;;;;;73.68;33.53;;;;;;;8.26;100.00;99417.38;5051047;28;20052;-89
2023/04/10 06:03:45;;;;;;;68.47;29.95;;;;;;;8.46;100.00;99423.41;5034382;28;21258;-88
2023/04/10 06:06:12;;;;;;;70.47;31.77;;;;;;;8.36;100.00;99426.44;5037016;28;20546;-88
2023/04/10 06:08:39;;;;;;;79.78;35.58;;;;;;;8.11;100.00;99397.25;5035711;28;20049;-89
2023/04/10 06:11:06;;;;;;;60.45;27.92;;;;;;;8.44;100.00;99414.81;5034680;28;20055;-89
2023/04/10 06:13:33;;;;;;;67.43;31.20;;;;;;;8.02;100.00;99343.84;5053202;28;20068;-89
2023/04/10 06:16:00;;;;;;;88.22;34.92;;;;;;;7.92;100.00;99329.56;5037220;28;20057;-89
2023/04/10 06:18:26;;;;;;;72.53;28.30;;;;;;;8.07;100.00;99322.72;5034836;28;20048;-89
2023/04/10 06:20:55;;;;;;;57.45;26.23;;;;;;;8.47;100.00;99399.00;5051785;28;20048;-90
2023/04/10 06:23:22;;;;;;;63.42;26.80;;;;;;;8.21;100.00;99343.75;5053670;28;20425;-91
2023/04/10 06:25:49;;;;;;;69.20;29.23;;;;;;;8.23;100.00;99348.88;5035807;28;20052;-88
2023/04/10 06:28:16;;;;;;;72.65;29.85;;;;;;;7.92;100.00;99319.97;5035657;28;20071;-88
2023/04/10 06:30:42;;;;;;;66.95;25.58;;;;;;;8.07;100.00;99305.31;5036781;28;20037;-88
2023/04/10 06:33:09;;;;;;;64.85;25.38;;;;;;;8.31;100.00;99349.34;5034719;28;20456;-87
2023/04/10 06:35:37;;;;;;;49.13;21.80;;;;;;;8.24;100.00;99312.31;5035055;28;20044;-87
2023/04/10 06:38:04;;;;;;;53.85;23.35;;;;;;;8.17;100.00;99303.09;5052292;28;20490;-88
2023/04/10 06:40:32;;;;;;;50.33;22.15;;;;;;;8.32;100.00;99298.88;5032881;28;20092;-88
2023/04/10 06:43:00;;;;;;;45.03;20.13;;;;;;;8.39;100.00;99305.44;5050916;28;20060;-87
2023/04/10 06:45:27;;;;;;;50.83;19.80;;;;;;;8.18;100.00;99260.47;5052110;28;20045;-87
2023/04/10 06:47:53;;;;;;;51.75;20.80;;;;;;;8.45;100.00;99297.34;5052414;28;20449;-87
2023/04/10 06:50:23;;;;;;;44.33;21.00;;;;;;;8.36;100.00;99322.13;5032528;28;20056;-88
2023/04/10 06:52:52;;;;;;;49.58;21.38;;;;;;;8.18;100.00;99282.19;5034516;28;20483;-88
2023/04/10 06:55:18;;;;;;;46.80;16.60;;;;;;;8.40;100.00;99288.06;5052510;28;20056;-87
2023/04/10 06:57:47;;;;;;;47.03;17.35;;;;;;;8.68;100.00;99311.81;5035791;28;20135;-87
2023/04/10 07:00:14;;;;;;;43.55;18.50;;;;;;;8.36;100.00;99258.69;5034269;28;20052;-88
2023/04/10 07:02:44;;;;;;;43.03;19.35;;;;;;;8.39;100.00;99262.88;5033647;28;20076;-88
2023/04/10 07:05:11;;;;;;;36.63;16.17;;;;;;;8.31;100.00;99258.09;5034843;28;20045;-87
2023/04/10 07:07:38;;;;;;;48.35;17.88;;;;;;;8.50;100.00;99256.22;5037200;28;20079;-88
2023/04/10 07:10:06;;;;;;;34.92;15.82;;;;;;;8.51;100.00;99263.13;5042782;28;20056;-88
2023/04/10 07:12:33;;;;;;;45.13;16.52;;;;;;;8.94;100.00;99291.28;5055487;28;20045;-90
2023/04/10 07:15:00;;;;;;;44.35;16.55;;;;;;;8.85;100.00;99260.47;5054063;28;20048;-89
2023/04/10 07:17:26;;;;;;;37.63;14.95;;;;;;;9.10;100.00;99288.69;5056376;28;20407;-89
2023/04/10 07:19:53;;;;;;;39.40;17.50;;;;;;;8.71;100.00;99220.31;5056919;28;20433;-89
2023/04/10 07:22:20;;;;;;;36.38;14.88;;;;;;;8.90;100.00;99238.41;5045026;28;20049;-89
2023/04/10 07:24:47;;;;;;;46.22;15.57;;;;;;;9.00;100.00;99237.94;5031317;28;20049;-88
2023/04/10 07:27:14;;;;;;;29.88;13.10;;;;;;;8.93;100.00;99237.44;5038454;28;20406;-89
2023/04/10 07:29:40;;;;;;;28.52;12.95;;;;;;;9.16;100.00;99269.25;5031053;28;20045;-89
2023/04/10 07:32:07;;;;;;;33.88;12.68;;;;;;;9.16;100.00;99244.00;5047731;28;20049;-88
2023/04/10 07:34:34;;;;;;;28.88;11.77;;;;;;;8.92;100.00;99223.53;5038320;28;20411;-88
2023/04/10 07:37:01;;;;;;;23.80;9.10;;;;;;;8.74;100.00;99173.16;5038174;28;20519;-88
2023/04/10 07:39:27;;;;;;;29.83;10.02;;;;;;;9.26;100.00;99237.31;5038316;28;20048;-88
2023/04/10 07:41:56;;;;;;;28.73;8.35;;;;;;;9.11;100.00;99176.34;5030706;28;20372;-88
2023/04/10 07:44:25;;;;;;;25.92;9.57;;;;;;;9.56;100.00;99239.13;5055318;28;20552;-88
2023/04/10 07:46:52;;;;;;;20.48;7.93;;;;;;;9.56;100.00;99227.81;5038715;28;20056;-89
2023/04/10 07:49:19;;;;;;;23.40;8.82;;;;;;;9.51;100.00;99204.59;5024374;28;20056;-89
2023/04/10 07:51:46;;;;;;;26.65;8.38;;;;;;;9.86;100.00;99251.34;5036955;28;20045;-90
2023/04/10 07:54:13;;;;;;;23.58;8.65;;;;;;;9.64;100.00;99209.94;5038384;28;20394;-89
2023/04/10 07:56:39;;;;;;;26.90;9.35;;;;;;;9.70;100.00;99196.50;5055209;28;20064;-90
2023/04/10 07:59:07;;;;;;;18.67;7.18;;;;;;;9.94;100.00;99222.97;5051225;28;20148;-90
2023/04/10 08:01:33;;;;;;;19.10;7.28;;;;;;;10.06;100.00;99227.50;5046766;28;20052;-89
2023/04/10 08:04:00;;;;;;;12.68;5.65;;;;;;;10.66;100.00;99256.22;5038085;28;20048;-89
2023/04/10 08:06:31;;;;;;;16.88;5.38;;;;;;;10.72;100.00;99221.81;5051240;28;20048;-91
2023/04/10 08:08:58;;;;;;;11.13;4.03;;;;;;;10.85;100.00;99251.53;5038507;28;20045;-91
2023/04/10 08:11:26;;;;;;;14.18;3.83;;;;;;;10.92;100.00;99275.56;5031007;28;20422;-90
2023/04/10 08:13:57;;;;;;;9.40;3.15;;;;;;;10.95;100.00;99263.13;5055280;28;20203;-89
2023/04/10 08:16:25;;;;;;;8.98;3.17;;;;;;;10.78;100.00;99226.66;5042861;28;20053;-90
2023/04/10 08:18:53;;;;;;;8.98;2.63;;;;;;;10.79;100.00;99231.81;5034104;28;20049;-89
2023/04/10 08:21:21;;;;;;;4.90;1.80;;;;;;;10.99;100.00;99261.16;5035557;28;20100;-89
2023/04/10 08:23:56;;;;;;;5.20;1.80;;;;;;;10.86;100.00;99211.31;5039057;28;20068;-89
2023/04/10 08:26:24;;;;;;;5.95;1.60;;;;;;;11.11;100.00;99215.00;5036660;28;20139;-89
2023/04/10 08:28:52;;;;;;;3.28;1.40;;;;;;;11.45;100.00;99224.13;5055099;28;20132;-88
2023/04/10 08:31:21;;;;;;;6.22;1.40;;;;;;;11.57;100.00;99199.75;5035982;28;20128;-88
2023/04/10 08:33:52;;;;;;;4.07;1.30;;;;;;;11.66;100.00;99224.50;5036322;28;20482;-89
2023/04/10 08:36:27;;;;;;;5.30;1.40;;;;;;;11.72;100.00;99228.50;5038343;28;20057;-87
2023/04/10 08:38:53;;;;;;;5.20;1.27;;;;;;;11.53;100.00;99208.75;5037767;28;20051;-87
2023/04/10 08:41:20;;;;;;;3.45;1.10;;;;;;;11.18;100.00;99159.50;5044823;28;20376;-88
2023/04/10 08:43:48;;;;;;;2.80;1.30;;;;;;;11.51;100.00;99194.06;5050259;28;20057;-89
2023/04/10 08:46:15;;;;;;;9.52;1.77;;;;;;;11.70;100.00;99243.50;5043573;28;20047;-88
2023/04/10 08:48:51;;;;;;;6.65;1.25;;;;;;;11.76;100.00;99243.94;5051660;28;20057;-88
2023/04/10 08:51:20;;;;;;;5.43;1.60;;;;;;;12.03;100.00;99250.94;5047184;28;20124;-88
2023/04/10 08:53:57;;;;;;;5.82;1.75;;;;;;;11.92;100.00;99256.06;5055554;28;20124;-89
2023/04/10 08:56:25;;;;;;;6.68;1.52;;;;;;;11.71;100.00;99208.47;5055484;28;20063;-89
2023/04/10 08:58:52;;;;;;;15.77;2.15;;;;;;;11.53;100.00;99245.44;5038044;28;20044;-89
2023/04/10 09:01:20;;;;;;;7.88;1.67;;;;;;;11.55;100.00;99232.25;5042295;28;20447;-89
2023/04/10 09:03:47;;;;;;;6.55;1.95;;;;;;;11.53;100.00;99234.13;5037265;28;20418;-88
2023/04/10 09:06:14;;;;;;;6.20;1.73;;;;;;;11.70;100.00;99259.22;5037540;28;20626;-89
2023/04/10 09:08:41;;;;;;;3.15;1.20;;;;;;;11.51;100.00;99242.09;5037998;28;20060;-89
2023/04/10 09:11:08;;;;;;;4.03;1.30;;;;;;;11.77;100.00;99255.25;5041528;28;20058;-90
2023/04/10 09:13:40;;;;;;;4.03;1.45;;;;;;;11.60;100.00;99188.22;5040462;28;20071;-89
2023/04/10 09:16:07;;;;;;;5.88;1.63;;;;;;;11.59;100.00;99233.72;5054867;28;20049;-89
2023/04/10 09:18:52;;;;;;;6.35;1.85;;;;;;;11.73;100.00;99262.50;5053646;28;20051;-89
2023/04/10 09:21:20;;;;;;;6.50;1.75;;;;;;;11.54;100.00;99212.22;5034964;28;20053;-89
2023/04/10 09:23:48;;;;;;;7.80;1.80;;;;;;;11.86;100.00;99257.25;5052693;28;20056;-89
2023/04/10 09:26:23;;;;;;;6.53;2.00;;;;;;;11.91;100.00;99254.38;5054641;28;20049;-90
2023/04/10 09:29:06;;;;;;;4.90;1.42;;;;;;;11.89;100.00;99186.25;5053485;28;20501;-90
2023/04/10 09:31:35;;;;;;;4.93;1.60;;;;;;;12.13;100.00;99210.03;5045124;28;20049;-88
2023/04/10 09:34:22;;;;;;;5.50;1.52;;;;;;;11.74;100.00;99127.84;5045291;28;20045;-89
2023/04/10 09:36:57;;;;;;;5.30;1.63;;;;;;;11.56;100.00;99082.75;5036283;28;20466;-89
2023/04/10 09:39:41;;;;;;;5.38;1.67;;;;;;;12.50;100.00;99209.25;5054733;28;20055;-89
2023/04/10 09:42:10;;;;;;;10.30;1.75;;;;;;;12.49;100.00;99225.97;5037861;28;20493;-88
2023/04/10 09:44:38;;;;;;;6.55;1.58;;;;;;;12.63;100.00;99204.00;5037582;28;20055;-90
2023/04/10 09:47:14;;;;;;;3.10;1.15;;;;;;;13.36;100.00;99225.97;5039720;28;20478;-90
2023/04/10 09:49:47;;;;;;;6.82;1.80;;;;;;;13.20;100.00;99181.53;5033472;28;20061;-90
2023/04/10 09:52:26;;;;;;;7.03;1.80;;;;;;;13.20;100.00;99166.59;5032942;28;20045;-89
2023/04/10 09:54:55;;;;;;;9.82;2.13;;;;;;;13.30;100.00;99199.13;5043503;28;20541;-90
2023/04/10 09:57:23;;;;;;;6.80;1.58;;;;;;;13.32;100.00;99172.78;5049659;28;20049;-90
2023/04/10 09:59:54;;;;;;;6.38;1.85;;;;;;;13.35;100.00;99180.44;5037015;28;20048;-90
2023/04/10 10:02:23;;;;;;;6.05;1.48;;;;;;;13.17;100.00;99158.09;5035482;28;20055;-89
2023/04/10 10:04:51;;;;;;;5.47;1.20;;;;;;;13.65;100.00;99185.19;5036424;28;20558;-88
2023/04/10 10:07:20;;;;;;;4.45;1.20;;;;;;;13.48;100.00;99207.47;5042462;28;20057;-89
2023/04/10 10:09:49;;;;;;;4.97;1.40;;;;;;;13.20;100.00;99177.09;5023128;28;20562;-89
2023/04/10 10:12:21;;;;;;;5.63;1.05;;;;;;;13.19;100.00;99151.78;5038072;28;20398;-89
2023/04/10 10:14:53;;;;;;;5.65;1.40;;;;;;;13.53;100.00;99185.25;5036490;28;20057;-89
2023/04/10 10:17:23;;;;;;;4.32;1.17;;;;;;;12.89;100.00;99118.94;5042448;28;20067;-88
2023/04/10 10:20:03;;;;;;;6.03;1.25;;;;;;;13.20;100.00;99171.84;5035902;28;20496;-89
2023/04/10 10:22:31;;;;;;;8.68;1.33;;;;;;;13.04;100.00;99158.16;5035800;28;20044;-91
2023/04/10 10:24:59;;;;;;;7.35;1.58;;;;;;;13.15;100.00;99160.00;5036310;28;20045;-90
2023/04/10 10:27:28;;;;;;;6.13;1.33;;;;;;;13.12;100.00;99108.53;5033616;28;20422;-90
2023/04/10 10:29:58;;;;;;;5.75;1.30;;;;;;;13.04;100.00;99074.09;5036021;28;20049;-91
2023/04/10 10:32:27;;;;;;;3.92;1.15;;;;;;;13.19;100.00;99104.47;5035209;28;20061;-90
2023/04/10 10:34:55;;;;;;;5.05;1.25;;;;;;;13.81;100.00;99137.53;5036847;28;20053;-91
2023/04/10 10:37:22;;;;;;;5.15;1.23;;;;;;;14.12;100.00;99139.59;5047729;28;20060;-91
2023/04/10 10:40:01;;;;;;;5.35;1.08;;;;;;;13.63;100.00;99131.03;5040921;28;20045;-91
2023/04/10 10:42:41;;;;;;;3.00;1.10;;;;;;;14.01;100.00;99153.59;5047738;28;20057;-90
2023/04/10 10:45:15;;;;;;;4.57;1.10;;;;;;;13.77;100.00;99137.88;5052436;28;20056;-90
2023/04/10 10:47:52;;;;;;;5.72;1.52;;;;;;;13.80;100.00;99154.25;5035062;28;20049;-90
2023/04/10 10:50:21;;;;;;;4.90;1.40;;;;;;;13.03;100.00;99089.03;5035175;28;20147;-90
2023/04/10 10:52:56;;;;;;;6.10;1.58;;;;;;;13.57;100.00;99134.13;5038652;28;20045;-90
2023/04/10 10:55:35;;;;;;;4.25;1.40;;;;;;;13.67;100.00;99129.84;5053832;28;20068;-90
2023/04/10 10:58:04;;;;;;;5.75;1.23;;;;;;;13.94;100.00;99100.59;5031617;28;20498;-89
2023/04/10 11:00:51;;;;;;;6.55;1.65;;;;;;;13.61;100.00;99099.59;5053569;28;20048;-90
2023/04/10 11:03:18;;;;;;;5.25;1.30;;;;;;;14.03;100.00;99120.91;5026072;28;20076;-90
2023/04/10 11:05:49;;;;;;;7.35;1.40;;;;;;;14.13;100.00;99122.81;5054116;28;20071;-89
2023/04/10 11:08:17;;;;;;;4.93;1.17;;;;;;;14.02;100.00;99092.94;5036938;28;20398;-91
2023/04/10 11:11:07;;;;;;;6.40;1.20;;;;;;;13.88;100.00;99066.84;5036051;28;20045;-90
2023/04/10 11:13:38;;;;;;;5.15;1.13;;;;;;;14.43;100.00;99109.06;5036628;28;20049;-90
2023/04/10 11:16:08;;;;;;;3.22;1.10;;;;;;;13.97;100.00;99088.97;5033154;28;20052;-90
2023/04/10 11:18:47;;;;;;;4.63;1.00;;;;;;;14.26;100.00;99133.25;5035696;28;20076;-89
2023/04/10 11:21:28;;;;;;;7.93;1.58;;;;;;;14.71;100.00;99143.75;5037027;28;20098;-90
2023/04/10 11:23:55;;;;;;;4.00;1.02;;;;;;;14.41;100.00;99122.34;5053949;28;20072;-90
2023/04/10 11:29:04;;;;;;;5.03;1.67;;;;;;;14.76;100.00;99117.88;5040752;28;20049;-89